sensor_id;sensor_type;location;lat;lon;timestamp;pressure;altitude;pressure_sealevel;temperature
19666;BMP180;9980;51.020;7.772;2023-05-18T00:02:15;98474.00;;;9.60
19666;BMP180;9980;51.020;7.772;2023-05-18T00:04:42;98490.00;;;9.50
19666;BMP180;9980;51.020;7.772;2023-05-18T00:07:09;98482.00;;;9.50
19666;BMP180;9980;51.020;7.772;2023-05-18T00:09:36;98488.00;;;9.50
19666;BMP180;9980;51.020;7.772;2023-05-18T00:12:04;98480.00;;;9.40
19666;BMP180;9980;51.020;7.772;2023-05-18T00:14:30;98488.00;;;9.40
19666;BMP180;9980;51.020;7.772;2023-05-18T00:16:57;98485.00;;;9.40
19666;BMP180;9980;51.020;7.772;2023-05-18T00:19:26;98487.00;;;9.30
19666;BMP180;9980;51.020;7.772;2023-05-18T00:21:53;98499.00;;;9.30
19666;BMP180;9980;51.020;7.772;2023-05-18T00:24:21;98485.00;;;9.20
19666;BMP180;9980;51.020;7.772;2023-05-18T00:26:48;98482.00;;;9.20
19666;BMP180;9980;51.020;7.772;2023-05-18T00:29:14;98491.00;;;9.20
19666;BMP180;9980;51.020;7.772;2023-05-18T00:31:41;98494.00;;;9.10
19666;BMP180;9980;51.020;7.772;2023-05-18T00:34:08;98490.00;;;9.10
19666;BMP180;9980;51.020;7.772;2023-05-18T00:36:37;98488.00;;;9.10
19666;BMP180;9980;51.020;7.772;2023-05-18T00:39:05;98499.00;;;9.00
19666;BMP180;9980;51.020;7.772;2023-05-18T00:41:32;98487.00;;;9.00
19666;BMP180;9980;51.020;7.772;2023-05-18T00:43:59;98493.00;;;8.90
19666;BMP180;9980;51.020;7.772;2023-05-18T00:46:27;98499.00;;;8.90
19666;BMP180;9980;51.020;7.772;2023-05-18T00:48:55;98478.00;;;8.80
19666;BMP180;9980;51.020;7.772;2023-05-18T00:51:23;98488.00;;;8.80
19666;BMP180;9980;51.020;7.772;2023-05-18T00:53:53;98487.00;;;8.80
19666;BMP180;9980;51.020;7.772;2023-05-18T00:56:21;98491.00;;;8.70
19666;BMP180;9980;51.020;7.772;2023-05-18T00:58:55;98487.00;;;8.70
19666;BMP180;9980;51.020;7.772;2023-05-18T01:01:32;98485.00;;;8.60
19666;BMP180;9980;51.020;7.772;2023-05-18T01:04:02;98494.00;;;8.60
19666;BMP180;9980;51.020;7.772;2023-05-18T01:06:31;98500.00;;;8.60
19666;BMP180;9980;51.020;7.772;2023-05-18T01:09:03;98500.00;;;8.50
19666;BMP180;9980;51.020;7.772;2023-05-18T01:12:01;98497.00;;;8.50
19666;BMP180;9980;51.020;7.772;2023-05-18T01:14:51;98491.00;;;8.40
19666;BMP180;9980;51.020;7.772;2023-05-18T01:17:43;98491.00;;;8.40
19666;BMP180;9980;51.020;7.772;2023-05-18T01:20:40;98480.00;;;8.40
19666;BMP180;9980;51.020;7.772;2023-05-18T01:26:13;98491.00;;;8.30
19666;BMP180;9980;51.020;7.772;2023-05-18T01:28:44;98484.00;;;8.20
19666;BMP180;9980;51.020;7.772;2023-05-18T01:31:13;98500.00;;;8.20
19666;BMP180;9980;51.020;7.772;2023-05-18T01:33:41;98496.00;;;8.20
19666;BMP180;9980;51.020;7.772;2023-05-18T01:36:08;98495.00;;;8.20
19666;BMP180;9980;51.020;7.772;2023-05-18T01:38:36;98483.00;;;8.10
19666;BMP180;9980;51.020;7.772;2023-05-18T01:41:26;98498.00;;;8.10
19666;BMP180;9980;51.020;7.772;2023-05-18T01:44:12;98494.00;;;8.00
19666;BMP180;9980;51.020;7.772;2023-05-18T01:49:32;98484.00;;;7.90
19666;BMP180;9980;51.020;7.772;2023-05-18T01:52:10;98499.00;;;7.90
19666;BMP180;9980;51.020;7.772;2023-05-18T01:54:43;98489.00;;;7.90
19666;BMP180;9980;51.020;7.772;2023-05-18T01:57:10;98484.00;;;7.90
19666;BMP180;9980;51.020;7.772;2023-05-18T01:59:38;98497.00;;;7.80
19666;BMP180;9980;51.020;7.772;2023-05-18T02:02:04;98482.00;;;7.80
19666;BMP180;9980;51.020;7.772;2023-05-18T02:04:31;98481.00;;;7.80
19666;BMP180;9980;51.020;7.772;2023-05-18T02:06:57;98492.00;;;7.80
19666;BMP180;9980;51.020;7.772;2023-05-18T02:09:24;98485.00;;;7.70
19666;BMP180;9980;51.020;7.772;2023-05-18T02:11:50;98468.00;;;7.70
19666;BMP180;9980;51.020;7.772;2023-05-18T02:14:16;98477.00;;;7.70
19666;BMP180;9980;51.020;7.772;2023-05-18T02:16:42;98480.00;;;7.60
19666;BMP180;9980;51.020;7.772;2023-05-18T02:19:15;98477.00;;;7.60
19666;BMP180;9980;51.020;7.772;2023-05-18T02:21:42;98466.00;;;7.60
19666;BMP180;9980;51.020;7.772;2023-05-18T02:24:08;98482.00;;;7.60
19666;BMP180;9980;51.020;7.772;2023-05-18T02:26:35;98480.00;;;7.60
19666;BMP180;9980;51.020;7.772;2023-05-18T02:29:04;98484.00;;;7.50
19666;BMP180;9980;51.020;7.772;2023-05-18T02:31:37;98489.00;;;7.50
19666;BMP180;9980;51.020;7.772;2023-05-18T02:34:03;98480.00;;;7.50
19666;BMP180;9980;51.020;7.772;2023-05-18T02:36:31;98491.00;;;7.40
19666;BMP180;9980;51.020;7.772;2023-05-18T02:39:03;98477.00;;;7.40
19666;BMP180;9980;51.020;7.772;2023-05-18T02:41:29;98471.00;;;7.40
19666;BMP180;9980;51.020;7.772;2023-05-18T02:43:56;98482.00;;;7.30
19666;BMP180;9980;51.020;7.772;2023-05-18T02:46:22;98482.00;;;7.30
19666;BMP180;9980;51.020;7.772;2023-05-18T02:48:48;98490.00;;;7.30
19666;BMP180;9980;51.020;7.772;2023-05-18T02:51:15;98484.00;;;7.20
19666;BMP180;9980;51.020;7.772;2023-05-18T02:53:41;98485.00;;;7.20
19666;BMP180;9980;51.020;7.772;2023-05-18T02:56:12;98486.00;;;7.20
19666;BMP180;9980;51.020;7.772;2023-05-18T02:58:50;98476.00;;;7.20
19666;BMP180;9980;51.020;7.772;2023-05-18T03:01:42;98489.00;;;7.10
19666;BMP180;9980;51.020;7.772;2023-05-18T03:04:09;98487.00;;;7.10
19666;BMP180;9980;51.020;7.772;2023-05-18T03:06:42;98479.00;;;7.10
19666;BMP180;9980;51.020;7.772;2023-05-18T03:09:11;98480.00;;;7.10
19666;BMP180;9980;51.020;7.772;2023-05-18T03:11:41;98490.00;;;7.00
19666;BMP180;9980;51.020;7.772;2023-05-18T03:14:08;98487.00;;;7.00
19666;BMP180;9980;51.020;7.772;2023-05-18T03:16:34;98488.00;;;7.00
19666;BMP180;9980;51.020;7.772;2023-05-18T03:19:07;98485.00;;;7.00
19666;BMP180;9980;51.020;7.772;2023-05-18T03:21:36;98485.00;;;6.90
19666;BMP180;9980;51.020;7.772;2023-05-18T03:24:04;98490.00;;;6.90
19666;BMP180;9980;51.020;7.772;2023-05-18T03:26:34;98488.00;;;6.90
19666;BMP180;9980;51.020;7.772;2023-05-18T03:29:00;98492.00;;;6.90
19666;BMP180;9980;51.020;7.772;2023-05-18T03:31:27;98486.00;;;6.80
19666;BMP180;9980;51.020;7.772;2023-05-18T03:33:55;98491.00;;;6.80
19666;BMP180;9980;51.020;7.772;2023-05-18T03:36:22;98483.00;;;6.80
19666;BMP180;9980;51.020;7.772;2023-05-18T03:38:51;98488.00;;;6.70
19666;BMP180;9980;51.020;7.772;2023-05-18T03:41:18;98495.00;;;6.70
19666;BMP180;9980;51.020;7.772;2023-05-18T03:43:44;98495.00;;;6.70
19666;BMP180;9980;51.020;7.772;2023-05-18T03:46:11;98488.00;;;6.70
19666;BMP180;9980;51.020;7.772;2023-05-18T03:48:37;98505.00;;;6.70
19666;BMP180;9980;51.020;7.772;2023-05-18T03:51:04;98492.00;;;6.70
19666;BMP180;9980;51.020;7.772;2023-05-18T03:53:31;98488.00;;;6.70
19666;BMP180;9980;51.020;7.772;2023-05-18T03:55:58;98494.00;;;6.60
19666;BMP180;9980;51.020;7.772;2023-05-18T03:58:25;98498.00;;;6.60
19666;BMP180;9980;51.020;7.772;2023-05-18T04:00:52;98497.00;;;6.60
19666;BMP180;9980;51.020;7.772;2023-05-18T04:03:19;98501.00;;;6.60
19666;BMP180;9980;51.020;7.772;2023-05-18T04:05:46;98504.00;;;6.60
19666;BMP180;9980;51.020;7.772;2023-05-18T04:08:15;98497.00;;;6.60
19666;BMP180;9980;51.020;7.772;2023-05-18T04:10:43;98502.00;;;6.60
19666;BMP180;9980;51.020;7.772;2023-05-18T04:13:11;98488.00;;;6.60
19666;BMP180;9980;51.020;7.772;2023-05-18T04:15:37;98506.00;;;6.60
19666;BMP180;9980;51.020;7.772;2023-05-18T04:18:04;98504.00;;;6.50
19666;BMP180;9980;51.020;7.772;2023-05-18T04:20:30;98504.00;;;6.60
19666;BMP180;9980;51.020;7.772;2023-05-18T04:22:56;98505.00;;;6.60
19666;BMP180;9980;51.020;7.772;2023-05-18T04:25:23;98502.00;;;6.60
19666;BMP180;9980;51.020;7.772;2023-05-18T04:27:54;98503.00;;;6.60
19666;BMP180;9980;51.020;7.772;2023-05-18T04:30:24;98509.00;;;6.60
19666;BMP180;9980;51.020;7.772;2023-05-18T04:32:51;98496.00;;;6.60
19666;BMP180;9980;51.020;7.772;2023-05-18T04:35:20;98493.00;;;6.60
19666;BMP180;9980;51.020;7.772;2023-05-18T04:37:46;98495.00;;;6.60
19666;BMP180;9980;51.020;7.772;2023-05-18T04:40:16;98504.00;;;6.60
19666;BMP180;9980;51.020;7.772;2023-05-18T04:42:44;98500.00;;;6.60
19666;BMP180;9980;51.020;7.772;2023-05-18T04:45:16;98513.00;;;6.60
19666;BMP180;9980;51.020;7.772;2023-05-18T04:47:47;98498.00;;;6.70
19666;BMP180;9980;51.020;7.772;2023-05-18T04:50:19;98504.00;;;6.70
19666;BMP180;9980;51.020;7.772;2023-05-18T04:52:48;98496.00;;;6.70
19666;BMP180;9980;51.020;7.772;2023-05-18T04:55:18;98510.00;;;6.70
19666;BMP180;9980;51.020;7.772;2023-05-18T04:57:52;98509.00;;;6.80
19666;BMP180;9980;51.020;7.772;2023-05-18T05:00:26;98501.00;;;6.90
19666;BMP180;9980;51.020;7.772;2023-05-18T05:02:55;98501.00;;;7.00
19666;BMP180;9980;51.020;7.772;2023-05-18T05:05:23;98499.00;;;7.10
19666;BMP180;9980;51.020;7.772;2023-05-18T05:07:51;98523.00;;;7.20
19666;BMP180;9980;51.020;7.772;2023-05-18T05:10:19;98509.00;;;7.30
19666;BMP180;9980;51.020;7.772;2023-05-18T05:12:46;98505.00;;;7.40
19666;BMP180;9980;51.020;7.772;2023-05-18T05:15:15;98510.00;;;7.50
19666;BMP180;9980;51.020;7.772;2023-05-18T05:17:42;98498.00;;;7.60
19666;BMP180;9980;51.020;7.772;2023-05-18T05:20:09;98497.00;;;7.80
19666;BMP180;9980;51.020;7.772;2023-05-18T05:22:35;98503.00;;;7.90
19666;BMP180;9980;51.020;7.772;2023-05-18T05:25:04;98512.00;;;8.00
19666;BMP180;9980;51.020;7.772;2023-05-18T05:27:32;98509.00;;;8.10
19666;BMP180;9980;51.020;7.772;2023-05-18T05:29:59;98514.00;;;8.20
19666;BMP180;9980;51.020;7.772;2023-05-18T05:32:25;98466.00;;;8.30
19666;BMP180;9980;51.020;7.772;2023-05-18T05:34:52;98477.00;;;8.40
19666;BMP180;9980;51.020;7.772;2023-05-18T05:37:20;98509.00;;;8.50
19666;BMP180;9980;51.020;7.772;2023-05-18T05:39:47;98509.00;;;8.60
19666;BMP180;9980;51.020;7.772;2023-05-18T05:42:16;98515.00;;;8.70
19666;BMP180;9980;51.020;7.772;2023-05-18T05:44:42;98491.00;;;8.80
19666;BMP180;9980;51.020;7.772;2023-05-18T05:47:08;98502.00;;;8.90
19666;BMP180;9980;51.020;7.772;2023-05-18T05:49:35;98514.00;;;9.10
19666;BMP180;9980;51.020;7.772;2023-05-18T05:52:02;98504.00;;;9.20
19666;BMP180;9980;51.020;7.772;2023-05-18T05:54:29;98516.00;;;9.30
19666;BMP180;9980;51.020;7.772;2023-05-18T05:56:56;98507.00;;;9.40
19666;BMP180;9980;51.020;7.772;2023-05-18T05:59:22;98506.00;;;9.50
19666;BMP180;9980;51.020;7.772;2023-05-18T06:01:49;98498.00;;;9.60
19666;BMP180;9980;51.020;7.772;2023-05-18T06:04:16;98511.00;;;9.70
19666;BMP180;9980;51.020;7.772;2023-05-18T06:06:43;98508.00;;;9.90
19666;BMP180;9980;51.020;7.772;2023-05-18T06:09:10;98520.00;;;10.00
19666;BMP180;9980;51.020;7.772;2023-05-18T06:11:37;98522.00;;;10.10
19666;BMP180;9980;51.020;7.772;2023-05-18T06:14:04;98509.00;;;10.20
19666;BMP180;9980;51.020;7.772;2023-05-18T06:16:30;98512.00;;;10.30
19666;BMP180;9980;51.020;7.772;2023-05-18T06:18:57;98524.00;;;10.50
19666;BMP180;9980;51.020;7.772;2023-05-18T06:21:23;98516.00;;;10.60
19666;BMP180;9980;51.020;7.772;2023-05-18T06:23:50;98515.00;;;10.70
19666;BMP180;9980;51.020;7.772;2023-05-18T06:26:27;98506.00;;;10.90
19666;BMP180;9980;51.020;7.772;2023-05-18T06:29:06;98515.00;;;11.00
19666;BMP180;9980;51.020;7.772;2023-05-18T06:31:54;98524.00;;;11.20
19666;BMP180;9980;51.020;7.772;2023-05-18T06:34:32;98530.00;;;11.30
19666;BMP180;9980;51.020;7.772;2023-05-18T06:36:59;98518.00;;;11.40
19666;BMP180;9980;51.020;7.772;2023-05-18T06:39:25;98525.00;;;11.50
19666;BMP180;9980;51.020;7.772;2023-05-18T06:41:52;98529.00;;;11.70
19666;BMP180;9980;51.020;7.772;2023-05-18T06:44:22;98540.00;;;11.80
19666;BMP180;9980;51.020;7.772;2023-05-18T06:47:20;98541.00;;;11.90
19666;BMP180;9980;51.020;7.772;2023-05-18T06:49:47;98525.00;;;12.00
19666;BMP180;9980;51.020;7.772;2023-05-18T06:52:14;98514.00;;;12.20
19666;BMP180;9980;51.020;7.772;2023-05-18T06:54:42;98524.00;;;12.30
19666;BMP180;9980;51.020;7.772;2023-05-18T06:57:08;98516.00;;;12.40
19666;BMP180;9980;51.020;7.772;2023-05-18T06:59:34;98529.00;;;12.60
19666;BMP180;9980;51.020;7.772;2023-05-18T07:02:00;98528.00;;;12.70
19666;BMP180;9980;51.020;7.772;2023-05-18T07:04:28;98524.00;;;12.80
19666;BMP180;9980;51.020;7.772;2023-05-18T07:06:55;98527.00;;;13.00
19666;BMP180;9980;51.020;7.772;2023-05-18T07:09:22;98528.00;;;13.10
19666;BMP180;9980;51.020;7.772;2023-05-18T07:11:48;98531.00;;;13.30
19666;BMP180;9980;51.020;7.772;2023-05-18T07:14:14;98526.00;;;13.40
19666;BMP180;9980;51.020;7.772;2023-05-18T07:16:41;98524.00;;;13.50
19666;BMP180;9980;51.020;7.772;2023-05-18T07:19:09;98534.00;;;13.60
19666;BMP180;9980;51.020;7.772;2023-05-18T07:21:35;98536.00;;;13.80
19666;BMP180;9980;51.020;7.772;2023-05-18T07:24:02;98516.00;;;13.90
19666;BMP180;9980;51.020;7.772;2023-05-18T07:26:28;98508.00;;;14.00
19666;BMP180;9980;51.020;7.772;2023-05-18T07:28:54;98513.00;;;14.10
19666;BMP180;9980;51.020;7.772;2023-05-18T07:31:21;98505.00;;;14.20
19666;BMP180;9980;51.020;7.772;2023-05-18T07:33:48;98521.00;;;14.30
19666;BMP180;9980;51.020;7.772;2023-05-18T07:36:14;98512.00;;;14.40
19666;BMP180;9980;51.020;7.772;2023-05-18T07:38:41;98524.00;;;14.60
19666;BMP180;9980;51.020;7.772;2023-05-18T07:41:07;98518.00;;;14.70
19666;BMP180;9980;51.020;7.772;2023-05-18T07:43:35;98512.00;;;14.80
19666;BMP180;9980;51.020;7.772;2023-05-18T07:46:01;98504.00;;;14.90
19666;BMP180;9980;51.020;7.772;2023-05-18T07:48:27;98514.00;;;15.00
19666;BMP180;9980;51.020;7.772;2023-05-18T07:50:54;98510.00;;;15.20
19666;BMP180;9980;51.020;7.772;2023-05-18T07:53:20;98499.00;;;15.30
19666;BMP180;9980;51.020;7.772;2023-05-18T07:55:46;98489.00;;;15.30
19666;BMP180;9980;51.020;7.772;2023-05-18T07:58:12;98509.00;;;15.40
19666;BMP180;9980;51.020;7.772;2023-05-18T08:00:39;98499.00;;;15.50
19666;BMP180;9980;51.020;7.772;2023-05-18T08:03:06;98507.00;;;15.60
19666;BMP180;9980;51.020;7.772;2023-05-18T08:05:32;98514.00;;;15.60
19666;BMP180;9980;51.020;7.772;2023-05-18T08:07:59;98499.00;;;15.70
19666;BMP180;9980;51.020;7.772;2023-05-18T08:10:29;98510.00;;;15.80
19666;BMP180;9980;51.020;7.772;2023-05-18T08:12:55;98508.00;;;15.70
19666;BMP180;9980;51.020;7.772;2023-05-18T08:15:22;98500.00;;;15.90
19666;BMP180;9980;51.020;7.772;2023-05-18T08:17:48;98509.00;;;15.90
19666;BMP180;9980;51.020;7.772;2023-05-18T08:20:14;98476.00;;;16.00
19666;BMP180;9980;51.020;7.772;2023-05-18T08:22:43;98496.00;;;16.00
19666;BMP180;9980;51.020;7.772;2023-05-18T08:25:09;98487.00;;;16.10
19666;BMP180;9980;51.020;7.772;2023-05-18T08:27:35;98491.00;;;16.20
19666;BMP180;9980;51.020;7.772;2023-05-18T08:30:02;98490.00;;;16.30
19666;BMP180;9980;51.020;7.772;2023-05-18T08:32:28;98482.00;;;16.30
19666;BMP180;9980;51.020;7.772;2023-05-18T08:34:54;98472.00;;;16.40
19666;BMP180;9980;51.020;7.772;2023-05-18T08:37:20;98484.00;;;16.50
19666;BMP180;9980;51.020;7.772;2023-05-18T08:39:47;98470.00;;;16.70
19666;BMP180;9980;51.020;7.772;2023-05-18T08:42:21;98482.00;;;16.80
19666;BMP180;9980;51.020;7.772;2023-05-18T08:45:23;98471.00;;;17.00
19666;BMP180;9980;51.020;7.772;2023-05-18T08:47:55;98481.00;;;17.10
19666;BMP180;9980;51.020;7.772;2023-05-18T08:50:30;98480.00;;;17.30
19666;BMP180;9980;51.020;7.772;2023-05-18T08:53:01;98454.00;;;17.40
19666;BMP180;9980;51.020;7.772;2023-05-18T08:55:31;98435.00;;;17.60
19666;BMP180;9980;51.020;7.772;2023-05-18T08:58:08;98451.00;;;17.60
19666;BMP180;9980;51.020;7.772;2023-05-18T09:00:35;98439.00;;;17.80
19666;BMP180;9980;51.020;7.772;2023-05-18T09:03:04;98464.00;;;17.90
19666;BMP180;9980;51.020;7.772;2023-05-18T09:05:31;98458.00;;;18.00
19666;BMP180;9980;51.020;7.772;2023-05-18T09:07:59;98490.00;;;18.10
19666;BMP180;9980;51.020;7.772;2023-05-18T09:10:27;98471.00;;;18.20
19666;BMP180;9980;51.020;7.772;2023-05-18T09:12:55;98471.00;;;18.30
19666;BMP180;9980;51.020;7.772;2023-05-18T09:15:22;98471.00;;;18.50
19666;BMP180;9980;51.020;7.772;2023-05-18T09:17:54;98473.00;;;18.60
19666;BMP180;9980;51.020;7.772;2023-05-18T09:20:21;98447.00;;;18.70
19666;BMP180;9980;51.020;7.772;2023-05-18T09:22:47;98460.00;;;18.90
19666;BMP180;9980;51.020;7.772;2023-05-18T09:25:17;98474.00;;;19.00
19666;BMP180;9980;51.020;7.772;2023-05-18T09:27:44;98469.00;;;19.10
19666;BMP180;9980;51.020;7.772;2023-05-18T09:30:11;98467.00;;;19.30
19666;BMP180;9980;51.020;7.772;2023-05-18T09:32:38;98470.00;;;19.40
19666;BMP180;9980;51.020;7.772;2023-05-18T09:35:06;98471.00;;;19.50
19666;BMP180;9980;51.020;7.772;2023-05-18T09:37:33;98468.00;;;19.60
19666;BMP180;9980;51.020;7.772;2023-05-18T09:40:04;98470.00;;;19.70
19666;BMP180;9980;51.020;7.772;2023-05-18T09:42:35;98462.00;;;19.80
19666;BMP180;9980;51.020;7.772;2023-05-18T09:45:17;98456.00;;;19.80
19666;BMP180;9980;51.020;7.772;2023-05-18T09:47:45;98463.00;;;20.00
19666;BMP180;9980;51.020;7.772;2023-05-18T09:50:11;98461.00;;;20.00
19666;BMP180;9980;51.020;7.772;2023-05-18T09:52:42;98472.00;;;20.10
19666;BMP180;9980;51.020;7.772;2023-05-18T09:55:10;98469.00;;;20.20
19666;BMP180;9980;51.020;7.772;2023-05-18T09:57:48;98464.00;;;20.20
19666;BMP180;9980;51.020;7.772;2023-05-18T10:00:17;98461.00;;;20.30
19666;BMP180;9980;51.020;7.772;2023-05-18T10:02:48;98456.00;;;20.30
19666;BMP180;9980;51.020;7.772;2023-05-18T10:05:26;98450.00;;;20.30
19666;BMP180;9980;51.020;7.772;2023-05-18T10:07:54;98456.00;;;20.30
19666;BMP180;9980;51.020;7.772;2023-05-18T10:10:23;98457.00;;;20.30
19666;BMP180;9980;51.020;7.772;2023-05-18T10:12:51;98447.00;;;20.40
19666;BMP180;9980;51.020;7.772;2023-05-18T10:15:21;98439.00;;;20.40
19666;BMP180;9980;51.020;7.772;2023-05-18T10:17:49;98445.00;;;20.50
19666;BMP180;9980;51.020;7.772;2023-05-18T10:20:22;98446.00;;;20.60
19666;BMP180;9980;51.020;7.772;2023-05-18T10:22:51;98435.00;;;20.70
19666;BMP180;9980;51.020;7.772;2023-05-18T10:25:26;98443.00;;;20.70
19666;BMP180;9980;51.020;7.772;2023-05-18T10:27:57;98432.00;;;20.80
19666;BMP180;9980;51.020;7.772;2023-05-18T10:30:26;98428.00;;;20.80
19666;BMP180;9980;51.020;7.772;2023-05-18T10:32:55;98421.00;;;20.80
19666;BMP180;9980;51.020;7.772;2023-05-18T10:35:23;98437.00;;;20.80
19666;BMP180;9980;51.020;7.772;2023-05-18T10:37:54;98445.00;;;20.90
19666;BMP180;9980;51.020;7.772;2023-05-18T10:40:23;98424.00;;;20.90
19666;BMP180;9980;51.020;7.772;2023-05-18T10:42:51;98427.00;;;21.00
19666;BMP180;9980;51.020;7.772;2023-05-18T10:45:18;98429.00;;;21.10
19666;BMP180;9980;51.020;7.772;2023-05-18T10:47:46;98434.00;;;21.20
19666;BMP180;9980;51.020;7.772;2023-05-18T10:50:14;98438.00;;;21.30
19666;BMP180;9980;51.020;7.772;2023-05-18T10:52:44;98431.00;;;21.30
19666;BMP180;9980;51.020;7.772;2023-05-18T10:55:12;98401.00;;;21.40
19666;BMP180;9980;51.020;7.772;2023-05-18T10:57:45;98424.00;;;21.40
19666;BMP180;9980;51.020;7.772;2023-05-18T11:00:13;98425.00;;;21.40
19666;BMP180;9980;51.020;7.772;2023-05-18T11:02:41;98427.00;;;21.40
19666;BMP180;9980;51.020;7.772;2023-05-18T11:05:09;98420.00;;;21.40
19666;BMP180;9980;51.020;7.772;2023-05-18T11:07:37;98399.00;;;21.40
19666;BMP180;9980;51.020;7.772;2023-05-18T11:10:09;98411.00;;;21.50
19666;BMP180;9980;51.020;7.772;2023-05-18T11:12:39;98374.00;;;21.50
19666;BMP180;9980;51.020;7.772;2023-05-18T11:15:09;98397.00;;;21.60
19666;BMP180;9980;51.020;7.772;2023-05-18T11:17:35;98408.00;;;21.70
19666;BMP180;9980;51.020;7.772;2023-05-18T11:20:09;98407.00;;;21.70
19666;BMP180;9980;51.020;7.772;2023-05-18T11:25:38;98411.00;;;22.00
19666;BMP180;9980;51.020;7.772;2023-05-18T11:28:10;98412.00;;;22.10
19666;BMP180;9980;51.020;7.772;2023-05-18T11:33:10;98399.00;;;22.40
19666;BMP180;9980;51.020;7.772;2023-05-18T11:36:08;98408.00;;;22.40
19666;BMP180;9980;51.020;7.772;2023-05-18T11:41:39;98387.00;;;22.60
19666;BMP180;9980;51.020;7.772;2023-05-18T11:49:28;98381.00;;;22.80
19666;BMP180;9980;51.020;7.772;2023-05-18T11:52:31;98387.00;;;22.80
19666;BMP180;9980;51.020;7.772;2023-05-18T11:54:59;98381.00;;;22.90
19666;BMP180;9980;51.020;7.772;2023-05-18T12:00:00;98379.00;;;23.10
19666;BMP180;9980;51.020;7.772;2023-05-18T12:02:41;98388.00;;;23.10
19666;BMP180;9980;51.020;7.772;2023-05-18T12:05:09;98375.00;;;23.20
19666;BMP180;9980;51.020;7.772;2023-05-18T12:07:37;98372.00;;;23.30
19666;BMP180;9980;51.020;7.772;2023-05-18T12:10:11;98366.00;;;23.30
19666;BMP180;9980;51.020;7.772;2023-05-18T12:12:38;98370.00;;;23.30
19666;BMP180;9980;51.020;7.772;2023-05-18T12:15:08;98364.00;;;23.30
19666;BMP180;9980;51.020;7.772;2023-05-18T12:17:49;98373.00;;;23.30
19666;BMP180;9980;51.020;7.772;2023-05-18T12:20:19;98367.00;;;23.30
19666;BMP180;9980;51.020;7.772;2023-05-18T12:22:49;98358.00;;;23.40
19666;BMP180;9980;51.020;7.772;2023-05-18T12:25:17;98358.00;;;23.40
19666;BMP180;9980;51.020;7.772;2023-05-18T12:27:46;98376.00;;;23.50
19666;BMP180;9980;51.020;7.772;2023-05-18T12:30:21;98362.00;;;23.50
19666;BMP180;9980;51.020;7.772;2023-05-18T12:32:56;98342.00;;;23.50
19666;BMP180;9980;51.020;7.772;2023-05-18T12:35:27;98348.00;;;23.60
19666;BMP180;9980;51.020;7.772;2023-05-18T12:37:55;98352.00;;;23.60
19666;BMP180;9980;51.020;7.772;2023-05-18T12:40:27;98354.00;;;23.70
19666;BMP180;9980;51.020;7.772;2023-05-18T12:42:55;98345.00;;;23.70
19666;BMP180;9980;51.020;7.772;2023-05-18T12:45:25;98344.00;;;23.80
19666;BMP180;9980;51.020;7.772;2023-05-18T12:47:52;98350.00;;;23.80
19666;BMP180;9980;51.020;7.772;2023-05-18T12:50:22;98354.00;;;23.90
19666;BMP180;9980;51.020;7.772;2023-05-18T12:52:48;98336.00;;;23.90
19666;BMP180;9980;51.020;7.772;2023-05-18T12:55:18;98345.00;;;23.90
19666;BMP180;9980;51.020;7.772;2023-05-18T12:58:16;98347.00;;;24.00
19666;BMP180;9980;51.020;7.772;2023-05-18T13:00:46;98338.00;;;24.10
19666;BMP180;9980;51.020;7.772;2023-05-18T13:03:17;98345.00;;;24.20
19666;BMP180;9980;51.020;7.772;2023-05-18T13:06:01;98343.00;;;24.20
19666;BMP180;9980;51.020;7.772;2023-05-18T13:08:30;98336.00;;;24.30
19666;BMP180;9980;51.020;7.772;2023-05-18T13:11:06;98345.00;;;24.30
19666;BMP180;9980;51.020;7.772;2023-05-18T13:14:07;98349.00;;;24.30
19666;BMP180;9980;51.020;7.772;2023-05-18T13:16:38;98329.00;;;24.30
19666;BMP180;9980;51.020;7.772;2023-05-18T13:19:08;98323.00;;;24.40
19666;BMP180;9980;51.020;7.772;2023-05-18T13:21:35;98333.00;;;24.40
19666;BMP180;9980;51.020;7.772;2023-05-18T13:24:03;98324.00;;;24.50
19666;BMP180;9980;51.020;7.772;2023-05-18T13:26:29;98306.00;;;24.50
19666;BMP180;9980;51.020;7.772;2023-05-18T13:28:58;98319.00;;;24.60
19666;BMP180;9980;51.020;7.772;2023-05-18T13:31:25;98320.00;;;24.60
19666;BMP180;9980;51.020;7.772;2023-05-18T13:33:52;98315.00;;;24.60
19666;BMP180;9980;51.020;7.772;2023-05-18T13:36:18;98321.00;;;24.60
19666;BMP180;9980;51.020;7.772;2023-05-18T13:38:44;98321.00;;;24.60
19666;BMP180;9980;51.020;7.772;2023-05-18T13:41:12;98302.00;;;24.60
19666;BMP180;9980;51.020;7.772;2023-05-18T13:43:40;98317.00;;;24.60
19666;BMP180;9980;51.020;7.772;2023-05-18T13:46:07;98316.00;;;24.70
19666;BMP180;9980;51.020;7.772;2023-05-18T13:48:35;98303.00;;;24.70
19666;BMP180;9980;51.020;7.772;2023-05-18T13:51:02;98299.00;;;24.70
19666;BMP180;9980;51.020;7.772;2023-05-18T13:53:28;98303.00;;;24.70
19666;BMP180;9980;51.020;7.772;2023-05-18T13:55:54;98301.00;;;24.70
19666;BMP180;9980;51.020;7.772;2023-05-18T13:58:21;98282.00;;;24.70
19666;BMP180;9980;51.020;7.772;2023-05-18T14:00:48;98290.00;;;24.70
19666;BMP180;9980;51.020;7.772;2023-05-18T14:03:15;98274.00;;;24.70
19666;BMP180;9980;51.020;7.772;2023-05-18T14:05:43;98271.00;;;24.70
19666;BMP180;9980;51.020;7.772;2023-05-18T14:08:09;98282.00;;;24.80
19666;BMP180;9980;51.020;7.772;2023-05-18T14:10:35;98283.00;;;24.80
19666;BMP180;9980;51.020;7.772;2023-05-18T14:13:02;98295.00;;;24.80
19666;BMP180;9980;51.020;7.772;2023-05-18T14:15:29;98299.00;;;24.70
19666;BMP180;9980;51.020;7.772;2023-05-18T14:18:00;98296.00;;;24.70
19666;BMP180;9980;51.020;7.772;2023-05-18T14:20:26;98278.00;;;24.70
19666;BMP180;9980;51.020;7.772;2023-05-18T14:22:54;98286.00;;;24.70
19666;BMP180;9980;51.020;7.772;2023-05-18T14:25:21;98273.00;;;24.70
19666;BMP180;9980;51.020;7.772;2023-05-18T14:27:47;98282.00;;;24.80
19666;BMP180;9980;51.020;7.772;2023-05-18T14:30:13;98288.00;;;24.80
19666;BMP180;9980;51.020;7.772;2023-05-18T14:32:39;98286.00;;;24.80
19666;BMP180;9980;51.020;7.772;2023-05-18T14:35:06;98272.00;;;24.90
19666;BMP180;9980;51.020;7.772;2023-05-18T14:37:33;98279.00;;;24.90
19666;BMP180;9980;51.020;7.772;2023-05-18T14:39:59;98274.00;;;24.90
19666;BMP180;9980;51.020;7.772;2023-05-18T14:42:25;98282.00;;;24.90
19666;BMP180;9980;51.020;7.772;2023-05-18T14:44:51;98281.00;;;24.90
19666;BMP180;9980;51.020;7.772;2023-05-18T14:47:17;98281.00;;;24.80
19666;BMP180;9980;51.020;7.772;2023-05-18T14:49:44;98267.00;;;24.80
19666;BMP180;9980;51.020;7.772;2023-05-18T14:52:10;98281.00;;;24.80
19666;BMP180;9980;51.020;7.772;2023-05-18T14:54:36;98274.00;;;24.70
19666;BMP180;9980;51.020;7.772;2023-05-18T14:57:03;98283.00;;;24.70
19666;BMP180;9980;51.020;7.772;2023-05-18T14:59:29;98279.00;;;24.70
19666;BMP180;9980;51.020;7.772;2023-05-18T15:01:56;98267.00;;;24.70